Natural Bridges, Utah
Current Conditions -  °F | °C
As of 5:55 PM on Monday 24 Nov 2014 (Local Time) from KBDG Reporting Station
Clear Clear  
Wind Chill: 25°   Ceiling: Unl
Heat Index: 33°   Visibility: 10mi
Dew Point:   Wind: 12mph
Humidity: 31%   Direction: 320°NW
Pressure: 30.38"   Gusts: NA
Location:  37.6208°N, 109.479°W
Report Text: KBDG 250055Z AUTO 32010KT 10SM CLR 01/M15 A3038 RMK AO1 T00081146
Loading
Personal Weather Stations






























Interactive Weather Map New forecast layout! Learn more

10-Day Weather Forecast

Advertisements
Track Severe Weather on mobile